createdAt,value
2018-06-12T00:01:55.258Z,97396.07
2018-06-12T00:04:24.844Z,97394.25
2018-06-12T00:06:53.632Z,97396.49
2018-06-12T00:09:22.294Z,97397.85
2018-06-12T00:11:51.475Z,97402.28
2018-06-12T00:14:20.687Z,97409.70
2018-06-12T00:16:49.597Z,97409.64
2018-06-12T00:19:18.414Z,97409.34
2018-06-12T00:21:47.269Z,97408.77
2018-06-12T00:24:16.038Z,97412.38
2018-06-12T00:26:45.009Z,97415.54
2018-06-12T00:29:14.318Z,97408.59
2018-06-12T00:31:43.230Z,97407.86
2018-06-12T00:34:12.285Z,97408.17
2018-06-12T00:36:41.804Z,97412.70
2018-06-12T00:39:11.302Z,97406.97
2018-06-12T00:41:40.085Z,97408.23
2018-06-12T00:44:08.852Z,97408.15
2018-06-12T00:46:37.607Z,97406.22
2018-06-12T00:52:27.948Z,97400.53
2018-06-12T00:54:56.484Z,97395.64
2018-06-12T00:57:25.187Z,97397.62
2018-06-12T00:59:53.952Z,97400.89
2018-06-12T01:02:22.611Z,97400.94
2018-06-12T01:04:51.312Z,97400.07
2018-06-12T01:07:20.368Z,97399.44
2018-06-12T01:09:49.139Z,97389.73
2018-06-12T01:12:17.747Z,97392.70
2018-06-12T01:14:46.519Z,97405.46
2018-06-12T01:17:15.304Z,97406.50
2018-06-12T01:19:44.319Z,97405.26
2018-06-12T01:22:13.885Z,97404.14
2018-06-12T01:24:43.472Z,97400.09
2018-06-12T01:27:13.098Z,97401.24
2018-06-12T01:29:41.851Z,97406.70
2018-06-12T01:32:10.700Z,97406.34
2018-06-12T01:34:39.680Z,97407.64
2018-06-12T01:37:08.496Z,97409.01
2018-06-12T01:39:37.252Z,97406.22
2018-06-12T01:42:06.385Z,97403.25
2018-06-12T01:44:35.771Z,97402.60
2018-06-12T01:47:04.805Z,97402.25
2018-06-12T01:49:33.945Z,97403.59
2018-06-12T01:52:02.625Z,97416.63
2018-06-12T01:54:31.539Z,97421.06
2018-06-12T01:57:00.389Z,97417.06
2018-06-12T01:59:29.142Z,97412.15
2018-06-12T02:01:57.883Z,97416.23
2018-06-12T02:04:27.521Z,97410.66
2018-06-12T02:06:56.341Z,97408.38
2018-06-12T02:09:25.846Z,97407.26
2018-06-12T02:11:55.500Z,97412.35
2018-06-12T02:14:24.420Z,97415.08
2018-06-12T02:16:53.506Z,97417.80
2018-06-12T02:21:50.126Z,97415.28
2018-06-12T02:24:18.905Z,97422.90
2018-06-12T02:26:47.879Z,97414.36
2018-06-12T02:29:16.839Z,97414.00
2018-06-12T02:31:45.491Z,97419.78
2018-06-12T02:34:14.750Z,97411.36
2018-06-12T02:36:44.102Z,97410.20
2018-06-12T02:39:12.974Z,97405.66
2018-06-12T02:41:42.325Z,97398.60
2018-06-12T02:44:10.916Z,97404.73
2018-06-12T02:46:39.761Z,97406.86
2018-06-12T02:49:08.639Z,97392.46
2018-06-12T02:51:37.261Z,97388.58
2018-06-12T02:54:06.170Z,97389.45
2018-06-12T02:56:34.769Z,97389.69
2018-06-12T02:59:03.534Z,97392.30
2018-06-12T03:01:32.196Z,97392.63
2018-06-12T03:04:00.846Z,97392.06
2018-06-12T03:06:29.521Z,97391.14
2018-06-12T03:08:59.221Z,97392.38
2018-06-12T03:11:28.147Z,97394.17
2018-06-12T03:13:57.567Z,97388.72
2018-06-12T03:16:26.252Z,97389.73
2018-06-12T03:18:54.931Z,97386.87
2018-06-12T03:21:24.136Z,97394.49
2018-06-12T03:23:53.200Z,97388.91
2018-06-12T03:26:22.489Z,97406.08
2018-06-12T03:28:51.385Z,97410.61
2018-06-12T03:31:20.058Z,97401.06
2018-06-12T03:33:49.515Z,97403.73
2018-06-12T03:36:18.456Z,97400.66
2018-06-12T03:38:47.781Z,97404.62
2018-06-12T03:41:16.775Z,97402.00
2018-06-12T03:43:45.736Z,97399.34
2018-06-12T03:46:14.617Z,97397.49
2018-06-12T03:48:43.447Z,97397.36
2018-06-12T03:51:13.049Z,97396.20
2018-06-12T03:53:41.876Z,97404.98
2018-06-12T03:56:11.025Z,97396.80
2018-06-12T03:58:40.397Z,97388.94
2018-06-12T04:01:09.621Z,97387.02
2018-06-12T04:03:38.617Z,97387.37
2018-06-12T04:06:07.188Z,97386.58
2018-06-12T04:08:36.170Z,97392.16
2018-06-12T04:11:05.587Z,97394.41
2018-06-12T04:13:34.739Z,97380.06
2018-06-12T04:16:04.036Z,97386.39
2018-06-12T04:18:33.279Z,97377.52
2018-06-12T04:21:02.557Z,97379.08
2018-06-12T04:23:31.661Z,97380.11
2018-06-12T04:26:01.952Z,97377.71
2018-06-12T04:28:30.658Z,97377.52
2018-06-12T04:31:00.235Z,97374.47
2018-06-12T04:33:28.911Z,97368.34
2018-06-12T04:35:57.716Z,97371.08
2018-06-12T04:38:26.947Z,97368.02
2018-06-12T04:40:55.581Z,97366.03
2018-06-12T04:43:24.499Z,97363.57
2018-06-12T04:45:53.200Z,97363.08
2018-06-12T04:48:21.919Z,97369.28
2018-06-12T04:50:51.000Z,97377.09
2018-06-12T04:53:20.052Z,97375.22
2018-06-12T04:55:48.732Z,97367.48
2018-06-12T04:58:17.841Z,97374.53
2018-06-12T05:00:46.578Z,97368.42
2018-06-12T05:03:15.346Z,97373.04
2018-06-12T05:05:44.323Z,97366.25
2018-06-12T05:08:13.006Z,97373.17
2018-06-12T05:10:41.896Z,97371.72
2018-06-12T05:13:11.083Z,97371.37
2018-06-12T05:15:40.021Z,97375.17
2018-06-12T05:18:09.380Z,97366.83
2018-06-12T05:20:38.105Z,97374.16
2018-06-12T05:23:08.305Z,97367.25
2018-06-12T05:25:37.170Z,97373.45
2018-06-12T05:28:06.799Z,97376.43
2018-06-12T05:30:35.811Z,97379.45
2018-06-12T05:33:04.913Z,97379.33
2018-06-12T05:35:33.814Z,97382.47
2018-06-12T05:38:03.200Z,97387.31
2018-06-12T05:40:32.057Z,97380.57
2018-06-12T05:43:00.862Z,97382.72
2018-06-12T05:45:30.138Z,97393.53
2018-06-12T05:47:58.983Z,97397.48
2018-06-12T05:50:28.466Z,97399.27
2018-06-12T05:52:57.651Z,97403.34
2018-06-12T05:55:26.637Z,97407.97
2018-06-12T05:57:55.541Z,97407.45
2018-06-12T06:00:24.523Z,97409.53
2018-06-12T06:02:53.573Z,97414.02
2018-06-12T06:05:22.445Z,97421.25
2018-06-12T06:07:51.171Z,97416.16
2018-06-12T06:10:20.485Z,97413.86
2018-06-12T06:12:49.188Z,97423.84
2018-06-12T06:15:18.001Z,97415.42
2018-06-12T06:17:47.254Z,97416.63
2018-06-12T06:20:16.281Z,97413.23
2018-06-12T06:22:45.453Z,97416.47
2018-06-12T06:25:15.098Z,97412.34
2018-06-12T06:27:44.056Z,97415.73
2018-06-12T06:30:13.121Z,97427.50
2018-06-12T06:32:42.019Z,97423.96
2018-06-12T06:35:11.721Z,97423.34
2018-06-12T06:37:41.036Z,97429.25
2018-06-12T06:40:10.061Z,97425.16
2018-06-12T06:42:39.167Z,97429.52
2018-06-12T06:45:08.343Z,97428.38
2018-06-12T06:47:37.338Z,97430.95
2018-06-12T06:50:06.917Z,97424.87
2018-06-12T06:52:36.207Z,97417.16
2018-06-12T06:55:05.331Z,97425.37
2018-06-12T06:57:34.187Z,97423.41
2018-06-12T07:00:02.976Z,97422.81
2018-06-12T07:02:31.747Z,97426.63
2018-06-12T07:05:00.540Z,97418.88
2018-06-12T07:07:29.522Z,97421.62
2018-06-12T07:09:58.427Z,97418.91
2018-06-12T07:12:27.282Z,97418.28
2018-06-12T07:14:56.132Z,97420.13
2018-06-12T07:17:25.381Z,97423.70
2018-06-12T07:19:54.185Z,97427.12
2018-06-12T07:22:22.993Z,97430.58
2018-06-12T07:24:51.661Z,97423.48
2018-06-12T07:27:20.346Z,97427.31
2018-06-12T07:29:49.601Z,97427.49
2018-06-12T07:32:19.380Z,97427.09
2018-06-12T07:34:48.017Z,97428.54
2018-06-12T07:37:16.882Z,97435.27
2018-06-12T07:39:46.118Z,97428.99
2018-06-12T07:42:15.707Z,97423.88
2018-06-12T07:44:45.000Z,97418.13
2018-06-12T07:47:13.767Z,97421.06
2018-06-12T07:49:43.314Z,97414.34
2018-06-12T07:52:12.247Z,97413.53
2018-06-12T07:54:40.934Z,97411.85
2018-06-12T07:57:10.109Z,97421.45
2018-06-12T07:59:39.842Z,97422.94
2018-06-12T08:02:08.672Z,97417.42
2018-06-12T08:04:37.669Z,97418.93
2018-06-12T08:07:07.444Z,97421.86
2018-06-12T08:09:36.333Z,97419.45
2018-06-12T08:12:05.123Z,97418.20
2018-06-12T08:14:33.922Z,97423.09
2018-06-12T08:17:02.543Z,97418.56
2018-06-12T08:19:31.208Z,97426.13
2018-06-12T08:22:00.548Z,97428.58
2018-06-12T08:24:29.620Z,97421.25
2018-06-12T08:26:58.477Z,97424.70
2018-06-12T08:29:27.138Z,97421.66
2018-06-12T08:31:56.187Z,97416.89
2018-06-12T08:34:25.592Z,97420.60
2018-06-12T08:36:54.923Z,97422.76
2018-06-12T08:39:25.013Z,97418.64
2018-06-12T08:41:54.242Z,97424.05
2018-06-12T08:44:23.045Z,97420.34
2018-06-12T08:46:52.508Z,97422.05
2018-06-12T08:49:21.813Z,97424.47
2018-06-12T08:51:50.674Z,97421.38
2018-06-12T08:54:19.348Z,97423.19
2018-06-12T08:56:48.504Z,97420.73
2018-06-12T08:59:17.394Z,97415.48
2018-06-12T09:01:46.890Z,97424.62
2018-06-12T09:04:16.141Z,97418.42
2018-06-12T09:06:45.392Z,97422.82
2018-06-12T09:09:14.480Z,97425.87
2018-06-12T09:11:43.965Z,97424.59
2018-06-12T09:14:12.900Z,97426.19
2018-06-12T09:16:42.299Z,97426.73
2018-06-12T09:19:11.168Z,97422.13
2018-06-12T09:21:39.823Z,97419.09
2018-06-12T09:24:09.128Z,97419.34
2018-06-12T09:26:38.068Z,97421.39
2018-06-12T09:29:07.689Z,97416.49
2018-06-12T09:31:36.529Z,97423.27
2018-06-12T09:34:05.762Z,97422.37
2018-06-12T09:36:35.564Z,97423.38
2018-06-12T09:39:08.442Z,97419.05
2018-06-12T09:41:37.387Z,97420.67
2018-06-12T09:44:07.514Z,97418.73
2018-06-12T09:46:36.544Z,97426.02
2018-06-12T09:49:05.476Z,97425.22
2018-06-12T09:51:34.205Z,97419.50
2018-06-12T09:54:03.120Z,97422.31
2018-06-12T09:56:32.624Z,97412.06
2018-06-12T09:59:01.602Z,97418.17
2018-06-12T10:01:31.134Z,97416.95
2018-06-12T10:03:59.992Z,97420.69
2018-06-12T10:06:30.669Z,97416.74
2018-06-12T10:08:59.395Z,97412.19
2018-06-12T10:11:28.210Z,97420.27
2018-06-12T10:13:56.897Z,97413.36
2018-06-12T10:16:25.685Z,97403.28
2018-06-12T10:18:54.752Z,97403.06
2018-06-12T10:21:23.577Z,97405.21
2018-06-12T10:23:52.248Z,97395.66
2018-06-12T10:26:20.802Z,97393.42
2018-06-12T10:28:49.835Z,97391.91
2018-06-12T10:31:18.554Z,97395.11
2018-06-12T10:33:47.323Z,97393.20
2018-06-12T10:36:16.292Z,97393.50
2018-06-12T10:38:44.879Z,97395.92
2018-06-12T10:41:13.815Z,97400.58
2018-06-12T10:43:42.651Z,97394.66
2018-06-12T10:46:12.148Z,97404.32
2018-06-12T10:48:41.100Z,97396.02
2018-06-12T10:51:09.709Z,97398.24
2018-06-12T10:53:39.162Z,97391.50
2018-06-12T10:56:07.858Z,97387.88
2018-06-12T10:58:36.728Z,97391.84
2018-06-12T11:01:05.698Z,97381.32
2018-06-12T11:03:34.510Z,97393.23
2018-06-12T11:06:03.118Z,97386.53
2018-06-12T11:08:31.929Z,97384.27
2018-06-12T11:11:00.510Z,97376.72
2018-06-12T11:13:29.689Z,97377.09
2018-06-12T11:16:00.209Z,97372.23
2018-06-12T11:18:29.196Z,97370.80
2018-06-12T11:20:58.039Z,97362.55
2018-06-12T11:23:26.816Z,97357.70
2018-06-12T11:25:55.643Z,97358.09
2018-06-12T11:28:24.339Z,97361.07
2018-06-12T11:30:53.350Z,97357.77
2018-06-12T11:33:22.735Z,97353.06
2018-06-12T11:35:51.443Z,97354.66
2018-06-12T11:38:20.125Z,97351.86
2018-06-12T11:40:48.805Z,97352.56
2018-06-12T11:43:17.508Z,97349.20
2018-06-12T11:45:46.434Z,97344.19
2018-06-12T11:48:15.997Z,97341.07
2018-06-12T11:50:44.614Z,97328.20
2018-06-12T11:53:13.516Z,97338.02
2018-06-12T11:55:42.220Z,97331.41
2018-06-12T11:58:10.944Z,97336.95
2018-06-12T12:00:40.281Z,97341.91
2018-06-12T12:03:09.051Z,97334.22
2018-06-12T12:05:37.749Z,97338.03
2018-06-12T12:08:06.684Z,97337.77
2018-06-12T12:10:35.519Z,97343.94
2018-06-12T12:13:04.249Z,97338.81
2018-06-12T12:15:33.040Z,97355.13
2018-06-12T12:18:01.970Z,97350.24
2018-06-12T12:20:30.985Z,97356.30
2018-06-12T12:22:59.758Z,97365.77
2018-06-12T12:25:28.415Z,97353.10
2018-06-12T12:27:57.107Z,97370.83
2018-06-12T12:30:25.963Z,97368.13
2018-06-12T12:32:54.744Z,97361.02
2018-06-12T12:35:23.587Z,97365.84
2018-06-12T12:37:52.404Z,97369.13
2018-06-12T12:40:21.013Z,97366.38
2018-06-12T12:42:49.798Z,97371.13
2018-06-12T12:45:19.568Z,97367.39
2018-06-12T12:47:48.320Z,97358.93
2018-06-12T12:50:17.080Z,97360.53
2018-06-12T12:52:45.874Z,97367.44
2018-06-12T12:55:14.630Z,97371.72
2018-06-12T12:57:43.499Z,97378.25
2018-06-12T13:00:12.525Z,97380.09
2018-06-12T13:02:41.343Z,97383.30
2018-06-12T13:05:10.021Z,97383.52
2018-06-12T13:07:39.267Z,97389.95
2018-06-12T13:10:08.189Z,97394.66
2018-06-12T13:12:36.978Z,97391.42
2018-06-12T13:15:06.215Z,97382.16
2018-06-12T13:17:34.872Z,97378.18
2018-06-12T13:20:03.881Z,97370.56
2018-06-12T13:22:32.746Z,97375.56
2018-06-12T13:25:01.990Z,97382.02
2018-06-12T13:27:30.865Z,97377.84
2018-06-12T13:29:59.821Z,97371.72
2018-06-12T13:32:28.915Z,97375.45
2018-06-12T13:34:57.744Z,97382.55
2018-06-12T13:37:26.690Z,97375.45
2018-06-12T13:39:55.403Z,97377.92
2018-06-12T13:42:24.051Z,97379.63
2018-06-12T13:44:52.692Z,97377.05
2018-06-12T13:47:22.295Z,97377.27
2018-06-12T13:49:51.226Z,97375.90
2018-06-12T13:52:19.851Z,97368.35
2018-06-12T13:54:48.810Z,97372.22
2018-06-12T13:57:17.630Z,97378.20
2018-06-12T13:59:46.442Z,97378.15
2018-06-12T14:02:15.421Z,97379.35
2018-06-12T14:04:44.238Z,97379.80
2018-06-12T14:07:13.780Z,97378.95
2018-06-12T14:09:42.684Z,97384.13
2018-06-12T14:12:11.595Z,97382.13
2018-06-12T14:14:40.521Z,97381.00
2018-06-12T14:17:09.514Z,97387.82
2018-06-12T14:19:38.387Z,97390.30
2018-06-12T14:22:07.279Z,97383.89
2018-06-12T14:24:36.177Z,97385.41
2018-06-12T14:27:05.726Z,97380.34
2018-06-12T14:29:34.727Z,97382.52
2018-06-12T14:32:04.186Z,97386.62
2018-06-12T14:34:33.431Z,97394.33
2018-06-12T14:37:02.238Z,97395.09
2018-06-12T14:39:31.842Z,97384.27
2018-06-12T14:42:00.574Z,97386.82
2018-06-12T14:44:29.372Z,97379.55
2018-06-12T14:46:58.433Z,97375.60
2018-06-12T14:49:27.751Z,97363.76
2018-06-12T14:51:57.863Z,97356.28
2018-06-12T14:54:27.138Z,97359.83
2018-06-12T14:56:56.432Z,97358.65
2018-06-12T14:59:25.465Z,97359.03
2018-06-12T15:01:54.916Z,97358.65
2018-06-12T15:04:24.082Z,97355.31
2018-06-12T15:06:53.293Z,97358.08
2018-06-12T15:09:22.495Z,97358.09
2018-06-12T15:11:51.376Z,97361.44
2018-06-12T15:14:20.940Z,97359.88
2018-06-12T15:16:50.071Z,97349.63
2018-06-12T15:19:19.236Z,97342.33
2018-06-12T15:21:48.666Z,97339.56
2018-06-12T15:24:17.360Z,97335.59
2018-06-12T15:26:46.291Z,97336.23
2018-06-12T15:29:15.314Z,97339.59
2018-06-12T15:31:44.360Z,97331.12
2018-06-12T15:34:13.780Z,97332.88
2018-06-12T15:36:42.731Z,97325.17
2018-06-12T15:39:12.233Z,97322.81
2018-06-12T15:41:40.974Z,97329.12
2018-06-12T15:44:10.870Z,97328.14
2018-06-12T15:46:40.740Z,97323.98
2018-06-12T15:49:09.590Z,97329.69
2018-06-12T15:51:38.436Z,97325.92
2018-06-12T15:54:07.447Z,97327.09
2018-06-12T15:56:37.741Z,97332.65
2018-06-12T15:59:06.861Z,97330.05
2018-06-12T16:01:35.789Z,97334.16
2018-06-12T16:04:04.704Z,97326.48
2018-06-12T16:06:33.606Z,97325.56
2018-06-12T16:09:02.776Z,97315.95
2018-06-12T16:11:31.964Z,97320.09
2018-06-12T16:14:00.772Z,97324.23
2018-06-12T16:16:29.666Z,97315.19
2018-06-12T16:18:58.521Z,97311.27
2018-06-12T16:21:28.079Z,97309.07
2018-06-12T16:23:56.772Z,97315.98
2018-06-12T16:26:25.397Z,97308.48
2018-06-12T16:28:54.236Z,97314.20
2018-06-12T16:31:24.540Z,97315.76
2018-06-12T16:33:53.216Z,97321.28
2018-06-12T16:36:21.931Z,97318.13
2018-06-12T16:38:51.449Z,97318.13
2018-06-12T16:41:20.224Z,97314.41
2018-06-12T16:43:48.970Z,97306.31
2018-06-12T16:46:18.162Z,97311.84
2018-06-12T16:48:46.876Z,97303.00
2018-06-12T16:51:15.710Z,97303.95
2018-06-12T16:53:44.713Z,97296.67
2018-06-12T16:56:13.792Z,97298.47
2018-06-12T16:58:42.660Z,97302.60
2018-06-12T17:01:11.486Z,97303.97
2018-06-12T17:03:40.883Z,97293.93
2018-06-12T17:06:09.722Z,97289.80
2018-06-12T17:08:38.457Z,97286.07
2018-06-12T17:11:09.161Z,97287.39
2018-06-12T17:13:37.773Z,97287.95
2018-06-12T17:16:06.906Z,97294.83
2018-06-12T17:18:35.547Z,97293.42
2018-06-12T17:21:04.458Z,97293.61
2018-06-12T17:23:33.237Z,97296.13
2018-06-12T17:26:02.826Z,97298.88
2018-06-12T17:28:31.565Z,97303.36
2018-06-12T17:31:00.411Z,97304.52
2018-06-12T17:33:29.185Z,97303.43
2018-06-12T17:35:58.008Z,97300.86
2018-06-12T17:38:26.997Z,97298.47
2018-06-12T17:40:56.391Z,97296.47
2018-06-12T17:43:25.467Z,97302.72
2018-06-12T17:45:54.525Z,97300.14
2018-06-12T17:48:24.023Z,97302.67
2018-06-12T17:50:53.067Z,97306.34
2018-06-12T17:53:22.201Z,97301.34
2018-06-12T17:55:51.751Z,97304.08
2018-06-12T17:58:20.452Z,97305.63
2018-06-12T18:00:50.080Z,97296.80
2018-06-12T18:03:18.860Z,97295.22
2018-06-12T18:05:47.767Z,97296.92
2018-06-12T18:08:16.670Z,97300.66
2018-06-12T18:10:45.586Z,97304.59
2018-06-12T18:13:14.400Z,97302.55
2018-06-12T18:15:43.493Z,97305.46
2018-06-12T18:18:12.610Z,97303.45
2018-06-12T18:20:45.619Z,97306.30
2018-06-12T18:23:15.924Z,97310.78
2018-06-12T18:25:44.846Z,97297.38
2018-06-12T18:28:13.663Z,97300.08
2018-06-12T18:30:42.694Z,97297.81
2018-06-12T18:33:11.716Z,97298.10
2018-06-12T18:35:40.563Z,97297.47
2018-06-12T18:38:09.513Z,97303.09
2018-06-12T18:40:38.439Z,97303.84
2018-06-12T18:43:07.650Z,97302.42
2018-06-12T18:45:36.686Z,97308.67
2018-06-12T18:48:05.740Z,97314.23
2018-06-12T18:50:34.501Z,97315.95
2018-06-12T18:53:04.338Z,97310.44
2018-06-12T18:55:33.962Z,97305.95
2018-06-12T18:58:03.092Z,97307.62
2018-06-12T19:00:31.982Z,97311.13
2018-06-12T19:03:01.694Z,97316.47
2018-06-12T19:05:30.450Z,97322.38
2018-06-12T19:08:00.188Z,97317.86
2018-06-12T19:10:29.406Z,97321.29
2018-06-12T19:12:58.621Z,97324.21
2018-06-12T19:15:27.682Z,97327.36
2018-06-12T19:17:56.803Z,97323.60
2018-06-12T19:20:25.706Z,97326.14
2018-06-12T19:22:54.432Z,97329.08
2018-06-12T19:25:23.521Z,97330.02
2018-06-12T19:27:52.261Z,97326.76
2018-06-12T19:30:21.105Z,97331.55
2018-06-12T19:32:49.841Z,97332.30
2018-06-12T19:35:18.603Z,97337.39
2018-06-12T19:37:47.387Z,97337.55
2018-06-12T19:40:16.598Z,97338.29
2018-06-12T19:42:45.454Z,97346.95
2018-06-12T19:45:14.493Z,97340.63
2018-06-12T19:47:43.228Z,97342.44
2018-06-12T19:50:12.027Z,97345.67
2018-06-12T19:52:41.048Z,97347.56
2018-06-12T19:55:10.316Z,97342.24
2018-06-12T19:57:38.897Z,97342.91
2018-06-12T20:00:07.991Z,97344.27
2018-06-12T20:02:36.996Z,97352.05
2018-06-12T20:05:05.873Z,97359.47
2018-06-12T20:07:35.028Z,97358.75
2018-06-12T20:10:03.903Z,97365.22
2018-06-12T20:12:32.731Z,97373.56
2018-06-12T20:15:02.208Z,97372.62
2018-06-12T20:17:30.952Z,97369.03
2018-06-12T20:19:59.870Z,97370.45
2018-06-12T20:22:28.755Z,97371.63
2018-06-12T20:24:57.644Z,97366.45
2018-06-12T20:27:26.424Z,97371.92
2018-06-12T20:29:55.072Z,97368.19
2018-06-12T20:32:23.818Z,97379.70
2018-06-12T20:34:52.539Z,97374.94
2018-06-12T20:37:22.092Z,97374.69
2018-06-12T20:39:51.472Z,97391.76
2018-06-12T20:42:20.331Z,97384.98
2018-06-12T20:44:49.739Z,97385.03
2018-06-12T20:47:18.757Z,97379.13
2018-06-12T20:49:48.717Z,97382.80
2018-06-12T20:52:17.558Z,97381.01
2018-06-12T20:54:46.684Z,97386.98
2018-06-12T20:57:15.752Z,97388.27
2018-06-12T20:59:45.079Z,97393.67
2018-06-12T21:02:14.247Z,97387.97
2018-06-12T21:04:42.867Z,97393.24
2018-06-12T21:07:11.968Z,97395.31
2018-06-12T21:09:40.769Z,97393.95
2018-06-12T21:12:09.398Z,97396.25
2018-06-12T21:14:38.571Z,97390.59
2018-06-12T21:17:07.407Z,97397.05
2018-06-12T21:19:36.206Z,97400.58
2018-06-12T21:22:05.262Z,97401.95
2018-06-12T21:24:33.846Z,97396.76
2018-06-12T21:27:02.691Z,97391.42
2018-06-12T21:29:31.729Z,97400.42
2018-06-12T21:32:00.547Z,97391.66
2018-06-12T21:34:29.431Z,97392.23
2018-06-12T21:36:58.588Z,97399.56
2018-06-12T21:39:27.467Z,97402.37
2018-06-12T21:41:57.638Z,97400.91
2018-06-12T21:44:27.199Z,97401.28
2018-06-12T21:46:56.042Z,97404.07
2018-06-12T21:49:24.707Z,97400.91
2018-06-12T21:51:53.679Z,97404.88
2018-06-12T21:54:22.536Z,97406.73
2018-06-12T21:56:51.179Z,97412.04
2018-06-12T21:59:20.013Z,97402.11
2018-06-12T22:01:48.813Z,97408.71
2018-06-12T22:04:18.639Z,97410.80
2018-06-12T22:06:47.563Z,97414.47
2018-06-12T22:09:16.373Z,97417.20
2018-06-12T22:11:45.577Z,97418.11
2018-06-12T22:14:15.388Z,97416.73
2018-06-12T22:16:44.868Z,97418.83
2018-06-12T22:19:14.557Z,97414.30
2018-06-12T22:21:43.546Z,97416.10
2018-06-12T22:24:12.197Z,97419.33
2018-06-12T22:26:40.958Z,97419.09
2018-06-12T22:29:09.596Z,97417.66
2018-06-12T22:31:38.680Z,97421.02
2018-06-12T22:34:07.699Z,97422.52
2018-06-12T22:36:36.548Z,97426.73
2018-06-12T22:39:08.480Z,97428.59
2018-06-12T22:41:37.464Z,97430.19
2018-06-12T22:44:06.548Z,97434.34
2018-06-12T22:46:35.222Z,97431.42
2018-06-12T22:49:04.207Z,97435.70
2018-06-12T22:51:32.897Z,97430.80
2018-06-12T22:54:02.449Z,97440.41
2018-06-12T22:56:31.828Z,97442.02
2018-06-12T22:59:00.735Z,97438.33
2018-06-12T23:01:29.406Z,97441.18
2018-06-12T23:03:58.189Z,97439.02
2018-06-12T23:06:26.938Z,97442.31
2018-06-12T23:08:55.929Z,97448.92
2018-06-12T23:11:24.649Z,97449.84
2018-06-12T23:13:53.459Z,97449.41
2018-06-12T23:16:22.331Z,97454.54
2018-06-12T23:18:51.033Z,97454.75
2018-06-12T23:21:46.307Z,97454.43
2018-06-12T23:24:15.868Z,97451.58
2018-06-12T23:26:46.900Z,97449.21
2018-06-12T23:29:15.664Z,97450.25
2018-06-12T23:31:44.309Z,97451.50
2018-06-12T23:34:13.552Z,97455.35
2018-06-12T23:36:42.336Z,97447.53
2018-06-12T23:39:11.276Z,97450.05
2018-06-12T23:41:41.247Z,97455.14
2018-06-12T23:44:09.918Z,97456.72
2018-06-12T23:46:38.588Z,97461.28
2018-06-12T23:49:07.619Z,97455.39
2018-06-12T23:51:36.230Z,97463.13
2018-06-12T23:54:05.208Z,97460.40
2018-06-12T23:56:34.408Z,97458.95
2018-06-12T23:59:03.817Z,97456.78
